Time;durP1;ratioP1;P1;durP2;ratioP2;P2;SDS_P1;SDS_P2;PMS_P1;PMS_P2;Temp;Humidity;BMP_temperature;BMP_pressure;BME280_temperature;BME280_humidity;BME280_pressure;Samples;Min_cycle;Max_cycle;Signal;HPM_P1;HPM_P2
2023/08/01 00:00:57;;;;;;;;;;;21.20;70.30;;;;;;4998907;28;1326;-71
2023/08/01 00:03:23;;;;;;;;;;;21.10;70.30;;;;;;4998919;28;1276;-72
2023/08/01 00:05:48;;;;;;;;;;;21.10;70.30;;;;;;4997079;28;1610;-72
2023/08/01 00:08:14;;;;;;;;;;;21.20;70.40;;;;;;4981294;28;912;-72
2023/08/01 00:10:40;;;;;;;;;;;21.10;70.30;;;;;;4999907;28;803;-72
2023/08/01 00:13:05;;;;;;;;;;;21.20;70.40;;;;;;5002348;28;1891;-72
2023/08/01 00:15:30;;;;;;;;;;;21.20;71.10;;;;;;5001768;28;1070;-74
2023/08/01 00:17:56;;;;;;;;;;;21.10;70.30;;;;;;5001902;28;885;-74
2023/08/01 00:20:21;;;;;;;;;;;21.10;70.30;;;;;;5001767;28;1490;-74
2023/08/01 00:22:47;;;;;;;;;;;21.20;70.40;;;;;;5002129;28;1235;-74
2023/08/01 00:25:13;;;;;;;;;;;21.10;70.30;;;;;;5000958;28;820;-74
2023/08/01 00:27:38;;;;;;;;;;;21.10;70.30;;;;;;5000078;28;855;-73
2023/08/01 00:30:04;;;;;;;;;;;21.10;70.40;;;;;;5002393;28;1610;-73
2023/08/01 00:32:30;;;;;;;;;;;21.20;70.40;;;;;;4999369;28;1435;-73
2023/08/01 00:34:55;;;;;;;;;;;21.20;70.40;;;;;;4997229;28;1902;-72
2023/08/01 00:37:21;;;;;;;;;;;21.20;70.40;;;;;;5003601;28;1212;-75
2023/08/01 00:39:46;;;;;;;;;;;21.10;70.30;;;;;;5000357;28;1035;-73
2023/08/01 00:42:11;;;;;;;;;;;21.10;70.30;;;;;;5001814;28;1347;-71
2023/08/01 00:44:37;;;;;;;;;;;21.20;70.40;;;;;;5002002;28;955;-71
2023/08/01 00:47:02;;;;;;;;;;;21.10;70.40;;;;;;5002003;28;786;-72
2023/08/01 00:49:28;;;;;;;;;;;21.10;70.30;;;;;;5001794;28;833;-72
2023/08/01 00:51:53;;;;;;;;;;;21.10;70.30;;;;;;5004713;28;1163;-73
2023/08/01 00:54:19;;;;;;;;;;;21.20;70.40;;;;;;4988801;28;1966;-72
2023/08/01 00:56:44;;;;;;;;;;;21.10;70.40;;;;;;5004804;28;904;-70
2023/08/01 00:59:11;;;;;;;;;;;21.20;70.40;;;;;;5000431;28;819;-71
2023/08/01 01:01:37;;;;;;;;;;;21.10;70.40;;;;;;4998449;28;971;-73
2023/08/01 01:04:02;;;;;;;;;;;21.20;70.40;;;;;;4996628;28;1759;-73
2023/08/01 01:06:30;;;;;;;;;;;21.20;70.40;;;;;;5004255;28;1023;-72
2023/08/01 01:08:56;;;;;;;;;;;21.10;70.40;;;;;;4986963;28;872;-73
2023/08/01 01:11:21;;;;;;;;;;;21.10;70.40;;;;;;5000894;28;867;-73
2023/08/01 01:13:47;;;;;;;;;;;21.20;70.40;;;;;;5002332;28;1954;-73
2023/08/01 01:16:12;;;;;;;;;;;21.20;70.40;;;;;;5006702;28;852;-74
2023/08/01 01:18:38;;;;;;;;;;;21.10;70.40;;;;;;5001617;28;1319;-73
2023/08/01 01:21:04;;;;;;;;;;;21.10;70.40;;;;;;4999871;28;899;-73
2023/08/01 01:23:30;;;;;;;;;;;21.20;70.40;;;;;;5000597;28;1301;-72
2023/08/01 01:25:55;;;;;;;;;;;21.10;70.40;;;;;;4990607;28;867;-72
2023/08/01 01:28:21;;;;;;;;;;;21.10;70.40;;;;;;4985269;28;1339;-72
2023/08/01 01:30:47;;;;;;;;;;;21.10;70.40;;;;;;4998962;28;861;-73
2023/08/01 01:33:12;;;;;;;;;;;21.10;70.30;;;;;;5001777;28;1955;-72
2023/08/01 01:35:38;;;;;;;;;;;21.10;70.40;;;;;;4988188;28;826;-73
2023/08/01 01:38:03;;;;;;;;;;;21.10;70.40;;;;;;5001127;28;809;-73
2023/08/01 01:40:32;;;;;;;;;;;21.20;70.40;;;;;;5003162;28;1208;-73
2023/08/01 01:42:58;;;;;;;;;;;21.10;70.40;;;;;;5000185;28;1284;-72
2023/08/01 01:45:23;;;;;;;;;;;21.10;70.40;;;;;;4986376;28;1234;-74
2023/08/01 01:47:49;;;;;;;;;;;21.10;70.40;;;;;;4998123;28;805;-73
2023/08/01 01:50:14;;;;;;;;;;;21.10;70.40;;;;;;4999685;28;995;-72
2023/08/01 01:52:40;;;;;;;;;;;21.10;70.40;;;;;;4995526;28;1910;-72
2023/08/01 01:55:05;;;;;;;;;;;21.20;70.40;;;;;;4997427;28;1613;-72
2023/08/01 01:57:31;;;;;;;;;;;21.10;70.40;;;;;;5000095;28;868;-73
2023/08/01 01:59:56;;;;;;;;;;;21.10;70.40;;;;;;4997597;28;835;-71
2023/08/01 02:02:22;;;;;;;;;;;21.10;70.40;;;;;;4986473;28;1248;-73
2023/08/01 02:04:47;;;;;;;;;;;21.10;70.40;;;;;;5001356;28;786;-73
2023/08/01 02:07:14;;;;;;;;;;;21.20;70.40;;;;;;4998933;28;896;-73
2023/08/01 02:09:39;;;;;;;;;;;21.10;70.40;;;;;;5000592;28;1300;-73
2023/08/01 02:12:05;;;;;;;;;;;21.10;70.40;;;;;;4997933;28;1065;-73
2023/08/01 02:14:30;;;;;;;;;;;21.20;70.40;;;;;;4999940;28;1899;-73
2023/08/01 02:16:56;;;;;;;;;;;21.10;70.40;;;;;;4998745;28;1424;-73
2023/08/01 02:19:21;;;;;;;;;;;21.20;70.40;;;;;;5001512;28;1320;-73
2023/08/01 02:21:47;;;;;;;;;;;21.20;71.20;;;;;;5003622;28;1327;-73
2023/08/01 02:24:12;;;;;;;;;;;21.10;70.40;;;;;;4982947;28;1460;-75
2023/08/01 02:26:38;;;;;;;;;;;21.10;70.40;;;;;;5001976;28;1328;-75
2023/08/01 02:29:04;;;;;;;;;;;21.10;70.40;;;;;;5004252;28;1437;-75
2023/08/01 02:31:29;;;;;;;;;;;21.20;70.40;;;;;;4992718;28;1346;-73
2023/08/01 02:33:54;;;;;;;;;;;21.10;70.40;;;;;;4998238;28;1979;-71
2023/08/01 02:36:20;;;;;;;;;;;21.10;70.40;;;;;;5002077;28;1277;-71
2023/08/01 02:38:45;;;;;;;;;;;21.10;70.40;;;;;;5002339;28;1408;-73
2023/08/01 02:41:11;;;;;;;;;;;21.20;70.40;;;;;;5001681;28;1472;-72
2023/08/01 02:43:36;;;;;;;;;;;21.10;70.40;;;;;;5002543;28;1357;-73
2023/08/01 02:46:02;;;;;;;;;;;21.10;70.40;;;;;;5001819;28;1346;-73
2023/08/01 02:48:27;;;;;;;;;;;21.10;70.40;;;;;;4996226;28;1154;-73
2023/08/01 02:50:53;;;;;;;;;;;21.10;70.40;;;;;;4997742;28;828;-73
2023/08/01 02:53:18;;;;;;;;;;;21.20;70.50;;;;;;5001730;28;1898;-73
2023/08/01 02:55:46;;;;;;;;;;;21.10;70.40;;;;;;4998143;28;871;-73
2023/08/01 02:58:11;;;;;;;;;;;21.10;70.40;;;;;;4994814;28;885;-72
2023/08/01 03:00:37;;;;;;;;;;;21.10;70.40;;;;;;5000910;28;912;-73
2023/08/01 03:03:03;;;;;;;;;;;21.10;70.40;;;;;;4990273;28;1368;-73
2023/08/01 03:05:28;;;;;;;;;;;21.10;70.40;;;;;;5000135;28;1201;-73
2023/08/01 03:07:54;;;;;;;;;;;21.10;70.40;;;;;;4997931;28;868;-72
2023/08/01 03:10:19;;;;;;;;;;;21.10;70.40;;;;;;4997404;28;826;-73
2023/08/01 03:12:45;;;;;;;;;;;21.10;70.40;;;;;;4996247;28;1963;-73
2023/08/01 03:15:10;;;;;;;;;;;21.10;70.40;;;;;;4998223;28;854;-73
2023/08/01 03:17:36;;;;;;;;;;;21.10;70.40;;;;;;4998926;28;973;-73
2023/08/01 03:20:01;;;;;;;;;;;21.20;70.40;;;;;;4999602;28;1039;-73
2023/08/01 03:22:26;;;;;;;;;;;21.20;70.50;;;;;;4997009;28;1443;-73
2023/08/01 03:24:52;;;;;;;;;;;21.10;70.40;;;;;;4972289;28;1210;-72
2023/08/01 03:27:17;;;;;;;;;;;21.10;70.40;;;;;;4982168;28;1271;-73
2023/08/01 03:29:43;;;;;;;;;;;21.10;70.40;;;;;;4998663;28;871;-72
2023/08/01 03:32:08;;;;;;;;;;;21.10;70.40;;;;;;4983311;28;832;-73
2023/08/01 03:34:34;;;;;;;;;;;21.10;70.50;;;;;;5001361;28;1953;-73
2023/08/01 03:36:59;;;;;;;;;;;21.10;70.40;;;;;;4999797;28;872;-73
2023/08/01 03:39:25;;;;;;;;;;;21.10;70.50;;;;;;4998063;28;1733;-72
2023/08/01 03:41:50;;;;;;;;;;;21.10;70.40;;;;;;4996461;28;1272;-72
2023/08/01 03:44:17;;;;;;;;;;;21.10;70.50;;;;;;4999269;28;1258;-73
2023/08/01 03:46:42;;;;;;;;;;;21.10;70.50;;;;;;4990283;28;1189;-73
2023/08/01 03:49:09;;;;;;;;;;;21.10;70.40;;;;;;5002207;28;823;-73
2023/08/01 03:51:34;;;;;;;;;;;21.10;70.40;;;;;;5003087;28;1016;-72
2023/08/01 03:54:00;;;;;;;;;;;21.10;70.50;;;;;;5002878;28;2008;-73
2023/08/01 03:56:26;;;;;;;;;;;21.10;70.40;;;;;;5004685;28;1213;-72
2023/08/01 03:58:52;;;;;;;;;;;21.20;70.50;;;;;;5000536;28;872;-73
2023/08/01 04:01:17;;;;;;;;;;;21.20;70.50;;;;;;5005650;28;817;-73
2023/08/01 04:03:43;;;;;;;;;;;21.10;70.40;;;;;;5002471;28;1362;-73
2023/08/01 04:06:08;;;;;;;;;;;21.10;70.50;;;;;;5002970;28;1015;-73
2023/08/01 04:08:34;;;;;;;;;;;21.10;70.50;;;;;;5000057;28;857;-73
2023/08/01 04:11:00;;;;;;;;;;;21.10;70.40;;;;;;5002449;28;1019;-73
2023/08/01 04:13:25;;;;;;;;;;;21.10;70.50;;;;;;5001976;28;1977;-73
2023/08/01 04:15:50;;;;;;;;;;;21.10;70.50;;;;;;5000724;28;877;-73
2023/08/01 04:18:16;;;;;;;;;;;21.10;70.50;;;;;;5002844;28;1417;-72
2023/08/01 04:20:41;;;;;;;;;;;21.20;70.50;;;;;;5001945;28;884;-73
2023/08/01 04:23:07;;;;;;;;;;;21.10;70.50;;;;;;5005844;28;1371;-73
2023/08/01 04:25:32;;;;;;;;;;;21.20;70.50;;;;;;4999338;28;2015;-75
2023/08/01 04:27:58;;;;;;;;;;;21.10;70.50;;;;;;5000636;28;1049;-75
2023/08/01 04:30:23;;;;;;;;;;;21.10;70.50;;;;;;4994297;28;1023;-74
2023/08/01 04:32:49;;;;;;;;;;;21.10;70.50;;;;;;5000639;28;1977;-75
2023/08/01 04:35:14;;;;;;;;;;;21.10;70.50;;;;;;4993815;28;948;-75
2023/08/01 04:37:39;;;;;;;;;;;21.10;70.50;;;;;;5002332;28;801;-75
2023/08/01 04:40:05;;;;;;;;;;;21.20;70.50;;;;;;5006655;28;955;-75
2023/08/01 04:42:31;;;;;;;;;;;21.10;70.50;;;;;;5005023;28;1302;-76
2023/08/01 04:44:57;;;;;;;;;;;21.10;70.50;;;;;;5002190;28;903;-76
2023/08/01 04:47:22;;;;;;;;;;;21.20;70.50;;;;;;4992881;28;817;-76
2023/08/01 04:49:48;;;;;;;;;;;21.20;70.50;;;;;;4996674;28;1669;-79
2023/08/01 04:52:13;;;;;;;;;;;21.10;70.50;;;;;;5005539;28;1346;-76
2023/08/01 04:54:39;;;;;;;;;;;21.10;70.50;;;;;;4995073;28;1973;-76
2023/08/01 04:57:04;;;;;;;;;;;21.20;70.50;;;;;;4999941;28;828;-77
2023/08/01 04:59:30;;;;;;;;;;;21.10;70.50;;;;;;5000981;28;968;-76
2023/08/01 05:01:55;;;;;;;;;;;21.20;70.50;;;;;;4998324;28;876;-77
2023/08/01 05:04:21;;;;;;;;;;;21.10;70.50;;;;;;4986041;28;1308;-76
2023/08/01 05:06:46;;;;;;;;;;;21.10;70.50;;;;;;4998341;28;850;-76
2023/08/01 05:09:12;;;;;;;;;;;21.10;70.50;;;;;;4987518;28;1633;-76
2023/08/01 05:11:37;;;;;;;;;;;21.10;70.50;;;;;;4990002;28;1558;-76
2023/08/01 05:14:03;;;;;;;;;;;21.20;70.50;;;;;;5000918;28;1894;-75
2023/08/01 05:16:28;;;;;;;;;;;21.10;70.50;;;;;;5000006;28;869;-77
2023/08/01 05:18:54;;;;;;;;;;;21.10;70.50;;;;;;5002527;28;1419;-72
2023/08/01 05:21:19;;;;;;;;;;;21.20;70.50;;;;;;5000530;28;914;-71
2023/08/01 05:23:45;;;;;;;;;;;21.10;70.50;;;;;;5001155;28;1264;-72
2023/08/01 05:26:10;;;;;;;;;;;21.20;71.30;;;;;;5000235;28;1316;-72
2023/08/01 05:28:36;;;;;;;;;;;21.10;70.50;;;;;;4999987;28;1439;-73
2023/08/01 05:31:01;;;;;;;;;;;21.10;70.50;;;;;;5000412;28;789;-72
2023/08/01 05:33:27;;;;;;;;;;;21.10;71.20;;;;;;4996870;28;1899;-72
2023/08/01 05:35:52;;;;;;;;;;;21.10;70.50;;;;;;4993918;28;1141;-73
2023/08/01 05:38:17;;;;;;;;;;;21.10;70.50;;;;;;5000554;28;872;-77
2023/08/01 05:40:43;;;;;;;;;;;21.10;70.50;;;;;;5008875;28;901;-77
2023/08/01 05:43:08;;;;;;;;;;;21.20;70.50;;;;;;5006736;28;1283;-78
2023/08/01 05:45:34;;;;;;;;;;;21.10;70.50;;;;;;5005972;28;1042;-77
2023/08/01 05:48:00;;;;;;;;;;;21.10;70.50;;;;;;4984331;28;821;-78
2023/08/01 05:50:25;;;;;;;;;;;21.10;70.50;;;;;;4985491;28;960;-77
2023/08/01 05:52:51;;;;;;;;;;;21.10;70.50;;;;;;4992264;28;1906;-79
2023/08/01 05:55:16;;;;;;;;;;;21.10;70.50;;;;;;4987669;28;1173;-78
2023/08/01 05:57:42;;;;;;;;;;;21.10;70.50;;;;;;5001153;28;809;-79
2023/08/01 06:00:07;;;;;;;;;;;21.20;70.50;;;;;;4997961;28;896;-76
2023/08/01 06:02:33;;;;;;;;;;;21.10;70.50;;;;;;4995716;28;1266;-75
2023/08/01 06:04:58;;;;;;;;;;;21.10;70.50;;;;;;5006455;28;741;-74
2023/08/01 06:07:24;;;;;;;;;;;21.10;70.50;;;;;;5001755;28;813;-74
2023/08/01 06:09:51;;;;;;;;;;;21.10;70.50;;;;;;5006026;28;845;-74
2023/08/01 06:12:17;;;;;;;;;;;21.10;71.20;;;;;;4985019;28;1356;-75
2023/08/01 06:14:43;;;;;;;;;;;21.10;70.50;;;;;;4991421;28;1977;-74
2023/08/01 06:17:08;;;;;;;;;;;21.10;70.50;;;;;;5005244;28;1015;-73
2023/08/01 06:19:33;;;;;;;;;;;21.10;70.50;;;;;;4994101;28;1344;-73
2023/08/01 06:22:00;;;;;;;;;;;21.10;70.50;;;;;;5001117;28;789;-74
2023/08/01 06:24:25;;;;;;;;;;;21.20;70.50;;;;;;4992911;28;1991;-74
2023/08/01 06:26:51;;;;;;;;;;;21.10;70.50;;;;;;4999934;28;911;-74
2023/08/01 06:29:16;;;;;;;;;;;21.10;70.50;;;;;;4997540;28;809;-74
2023/08/01 06:31:41;;;;;;;;;;;21.10;70.50;;;;;;5003251;28;1046;-74
2023/08/01 06:34:07;;;;;;;;;;;21.20;71.40;;;;;;4991602;28;1965;-74
2023/08/01 06:36:32;;;;;;;;;;;21.10;70.50;;;;;;5006761;28;991;-74
2023/08/01 06:38:58;;;;;;;;;;;21.20;70.50;;;;;;4989070;28;1176;-73
2023/08/01 06:41:23;;;;;;;;;;;21.10;70.50;;;;;;4999219;28;1962;-72
2023/08/01 06:43:49;;;;;;;;;;;21.10;70.50;;;;;;5003726;28;1366;-72
2023/08/01 06:46:14;;;;;;;;;;;21.10;70.50;;;;;;5005169;28;1281;-73
2023/08/01 06:48:40;;;;;;;;;;;21.20;70.60;;;;;;5003955;28;931;-73
2023/08/01 06:51:05;;;;;;;;;;;21.10;70.50;;;;;;5005217;28;681;-72
2023/08/01 06:53:31;;;;;;;;;;;21.10;70.50;;;;;;5003250;28;1974;-72
2023/08/01 06:55:56;;;;;;;;;;;21.10;70.60;;;;;;4996192;28;884;-73
2023/08/01 06:58:21;;;;;;;;;;;21.10;70.60;;;;;;4997078;28;955;-73
2023/08/01 07:00:47;;;;;;;;;;;21.20;70.60;;;;;;5002621;28;836;-73
2023/08/01 07:03:12;;;;;;;;;;;21.10;70.50;;;;;;4995461;28;1281;-73
2023/08/01 07:05:38;;;;;;;;;;;21.10;70.60;;;;;;4997672;28;920;-72
2023/08/01 07:08:03;;;;;;;;;;;21.20;70.60;;;;;;4995593;28;789;-72
2023/08/01 07:10:29;;;;;;;;;;;21.10;70.50;;;;;;4997782;28;792;-72
2023/08/01 07:12:55;;;;;;;;;;;21.10;70.50;;;;;;4997386;28;1898;-74
2023/08/01 07:15:20;;;;;;;;;;;21.10;70.60;;;;;;5004455;28;2077;-72
2023/08/01 07:17:46;;;;;;;;;;;21.10;70.50;;;;;;4994814;28;1140;-72
2023/08/01 07:20:11;;;;;;;;;;;21.10;70.50;;;;;;5005520;28;817;-73
2023/08/01 07:22:37;;;;;;;;;;;21.10;70.50;;;;;;5005438;28;1216;-72
2023/08/01 07:25:02;;;;;;;;;;;21.10;70.60;;;;;;5007794;28;885;-72
2023/08/01 07:27:28;;;;;;;;;;;21.10;70.50;;;;;;5010396;28;853;-73
2023/08/01 07:29:53;;;;;;;;;;;21.10;70.50;;;;;;5004413;28;1010;-72
2023/08/01 07:32:19;;;;;;;;;;;21.10;70.50;;;;;;5006739;28;1908;-72
2023/08/01 07:34:44;;;;;;;;;;;21.10;70.60;;;;;;5007213;28;1944;-72
2023/08/01 07:37:10;;;;;;;;;;;21.20;70.60;;;;;;5010683;28;812;-73
2023/08/01 07:39:35;;;;;;;;;;;21.10;70.60;;;;;;5007626;28;797;-72
2023/08/01 07:42:01;;;;;;;;;;;21.20;70.60;;;;;;4997154;28;1526;-73
2023/08/01 07:44:26;;;;;;;;;;;21.20;70.60;;;;;;5007659;28;1361;-73
2023/08/01 07:46:52;;;;;;;;;;;21.10;70.50;;;;;;5004481;28;884;-73
2023/08/01 07:49:18;;;;;;;;;;;21.10;70.50;;;;;;5003619;28;1046;-72
2023/08/01 07:51:43;;;;;;;;;;;21.10;71.30;;;;;;5004475;28;857;-73
2023/08/01 07:54:10;;;;;;;;;;;21.10;70.60;;;;;;4998257;28;1910;-73
2023/08/01 07:56:35;;;;;;;;;;;21.10;70.60;;;;;;5007047;28;832;-73
2023/08/01 07:59:01;;;;;;;;;;;21.10;70.60;;;;;;5007450;28;953;-72
2023/08/01 08:01:26;;;;;;;;;;;21.10;70.50;;;;;;5004885;28;1057;-73
2023/08/01 08:03:51;;;;;;;;;;;21.10;70.60;;;;;;5005083;28;1837;-73
2023/08/01 08:06:17;;;;;;;;;;;21.10;70.60;;;;;;5002430;28;1463;-73
2023/08/01 08:08:42;;;;;;;;;;;21.10;70.60;;;;;;5003888;28;2328;-73
2023/08/01 08:11:08;;;;;;;;;;;21.20;70.60;;;;;;4989700;28;1263;-73
2023/08/01 08:13:33;;;;;;;;;;;21.10;70.50;;;;;;5005649;28;1940;-71
2023/08/01 08:15:59;;;;;;;;;;;21.10;70.60;;;;;;5001877;28;959;-73
2023/08/01 08:18:24;;;;;;;;;;;21.10;70.50;;;;;;4988214;28;1307;-73
2023/08/01 08:20:50;;;;;;;;;;;21.10;70.60;;;;;;5008055;28;836;-73
2023/08/01 08:23:16;;;;;;;;;;;21.10;70.60;;;;;;5004106;28;1334;-72
2023/08/01 08:25:46;;;;;;;;;;;21.10;70.60;;;;;;4991904;28;880;-73
2023/08/01 08:28:12;;;;;;;;;;;21.10;70.60;;;;;;5003663;28;1355;-74
2023/08/01 08:30:37;;;;;;;;;;;21.10;70.60;;;;;;5003421;28;805;-73
2023/08/01 08:33:04;;;;;;;;;;;21.10;70.60;;;;;;5002751;28;1977;-73
2023/08/01 08:35:30;;;;;;;;;;;21.10;70.60;;;;;;5003722;28;868;-73
2023/08/01 08:37:55;;;;;;;;;;;21.10;70.60;;;;;;5002765;28;834;-73
2023/08/01 08:40:21;;;;;;;;;;;21.10;70.60;;;;;;4991043;28;1301;-74
2023/08/01 08:42:46;;;;;;;;;;;21.10;70.60;;;;;;4986342;28;1433;-73
2023/08/01 08:45:12;;;;;;;;;;;21.10;70.60;;;;;;4984800;28;1200;-74
2023/08/01 08:47:38;;;;;;;;;;;21.10;70.60;;;;;;5000514;28;879;-72
2023/08/01 08:50:03;;;;;;;;;;;21.10;70.60;;;;;;4996191;28;828;-73
2023/08/01 08:52:29;;;;;;;;;;;21.10;70.60;;;;;;4998535;28;1239;-73
2023/08/01 08:54:55;;;;;;;;;;;21.10;70.60;;;;;;5000326;28;1914;-72
2023/08/01 08:57:20;;;;;;;;;;;21.10;70.60;;;;;;4986635;28;1030;-73
2023/08/01 08:59:46;;;;;;;;;;;21.10;70.60;;;;;;4999256;28;827;-73
2023/08/01 09:02:12;;;;;;;;;;;21.10;70.60;;;;;;4999247;28;907;-74
2023/08/01 09:04:37;;;;;;;;;;;21.10;70.60;;;;;;4987356;28;1295;-72
2023/08/01 09:07:03;;;;;;;;;;;21.10;70.60;;;;;;5000906;28;865;-73
2023/08/01 09:09:28;;;;;;;;;;;21.10;70.60;;;;;;4999526;28;2131;-73
2023/08/01 09:11:57;;;;;;;;;;;21.10;70.60;;;;;;4993404;28;1373;-73
2023/08/01 09:14:22;;;;;;;;;;;21.10;70.60;;;;;;4999268;28;1902;-72
2023/08/01 09:16:48;;;;;;;;;;;21.10;70.50;;;;;;5000213;28;870;-72
2023/08/01 09:19:17;;;;;;;;;;;21.20;70.70;;;;;;4986186;28;1296;-72
2023/08/01 09:21:43;;;;;;;;;;;21.20;70.80;;;;;;5000103;28;888;-72
2023/08/01 09:24:12;;;;;;;;;;;21.20;70.80;;;;;;4998415;28;1357;-72
2023/08/01 09:26:37;;;;;;;;;;;21.20;70.90;;;;;;4987910;28;897;-72
2023/08/01 09:29:03;;;;;;;;;;;21.20;71.00;;;;;;5002856;28;1254;-72
2023/08/01 09:31:29;;;;;;;;;;;21.20;71.10;;;;;;5000828;28;856;-72
2023/08/01 09:33:54;;;;;;;;;;;21.20;71.20;;;;;;4999981;28;1898;-72
2023/08/01 09:36:23;;;;;;;;;;;21.20;71.20;;;;;;5003075;28;880;-72
2023/08/01 09:38:49;;;;;;;;;;;21.20;71.20;;;;;;4985776;28;882;-72
2023/08/01 09:41:17;;;;;;;;;;;21.20;71.20;;;;;;4999054;28;998;-72
2023/08/01 09:43:44;;;;;;;;;;;21.20;70.90;;;;;;5000167;28;1503;-72
2023/08/01 09:46:11;;;;;;;;;;;21.20;71.00;;;;;;4997294;28;869;-72
2023/08/01 09:48:36;;;;;;;;;;;21.20;70.90;;;;;;4990475;28;1389;-72
2023/08/01 09:51:14;;;;;;;;;;;21.20;70.70;;;;;;4999807;28;822;-72
2023/08/01 09:54:06;;;;;;;;;;;21.20;70.50;;;;;;5000796;28;2498;-72
2023/08/01 09:56:31;;;;;;;;;;;21.20;70.70;;;;;;4998652;28;1343;-72
2023/08/01 09:58:57;;;;;;;;;;;21.20;70.50;;;;;;5002504;28;1015;-72
2023/08/01 10:01:23;;;;;;;;;;;21.20;70.50;;;;;;4999925;28;865;-71
2023/08/01 10:03:49;;;;;;;;;;;21.20;70.80;;;;;;4976815;28;1302;-71
2023/08/01 10:06:19;;;;;;;;;;;21.20;70.80;;;;;;4998659;28;896;-71
2023/08/01 10:08:44;;;;;;;;;;;21.20;70.80;;;;;;4998577;28;923;-71
2023/08/01 10:11:10;;;;;;;;;;;21.20;70.80;;;;;;4998276;28;1226;-71
2023/08/01 10:13:35;;;;;;;;;;;21.20;70.90;;;;;;4984561;28;1887;-71
2023/08/01 10:16:01;;;;;;;;;;;21.20;70.90;;;;;;4987591;28;837;-71
2023/08/01 10:18:26;;;;;;;;;;;21.20;70.70;;;;;;4975155;28;1405;-71
2023/08/01 10:20:52;;;;;;;;;;;21.20;70.50;;;;;;4974438;28;4395;-71
2023/08/01 10:23:17;;;;;;;;;;;21.20;70.30;;;;;;4998382;28;1363;-71
2023/08/01 10:25:43;;;;;;;;;;;21.20;70.30;;;;;;5001452;28;903;-71
2023/08/01 10:28:08;;;;;;;;;;;21.20;70.30;;;;;;4995790;28;1023;-71
2023/08/01 10:30:34;;;;;;;;;;;21.20;70.40;;;;;;5002389;28;919;-70
2023/08/01 10:32:59;;;;;;;;;;;21.20;70.50;;;;;;5000702;28;1971;-71
2023/08/01 10:35:37;;;;;;;;;;;21.20;70.60;;;;;;4997939;28;799;-70
2023/08/01 10:38:06;;;;;;;;;;;21.20;71.40;;;;;;4984792;28;1003;-71
2023/08/01 10:40:35;;;;;;;;;;;21.20;70.70;;;;;;4984726;28;897;-71
2023/08/01 10:43:01;;;;;;;;;;;21.20;70.80;;;;;;5000342;28;1359;-71
2023/08/01 10:45:29;;;;;;;;;;;21.20;70.90;;;;;;4998196;28;877;-71
2023/08/01 10:48:05;;;;;;;;;;;21.20;70.80;;;;;;5000463;28;843;-71
2023/08/01 10:50:31;;;;;;;;;;;21.20;70.80;;;;;;5000380;28;923;-71
2023/08/01 10:53:06;;;;;;;;;;;21.20;70.70;;;;;;4998074;28;1598;-71
2023/08/01 10:55:42;;;;;;;;;;;21.20;70.70;;;;;;5000066;28;811;-71
2023/08/01 10:58:07;;;;;;;;;;;21.20;71.00;;;;;;4994706;28;1030;-71
2023/08/01 11:00:33;;;;;;;;;;;21.20;71.30;;;;;;4996300;28;935;-71
2023/08/01 11:02:58;;;;;;;;;;;21.20;71.60;;;;;;4999020;28;1305;-71
2023/08/01 11:05:25;;;;;;;;;;;21.20;72.10;;;;;;4997897;28;2155;-71
2023/08/01 11:07:55;;;;;;;;;;;21.10;72.30;;;;;;4997847;28;1435;-70
2023/08/01 11:10:21;;;;;;;;;;;21.10;72.50;;;;;;4998421;28;1287;-71
2023/08/01 11:12:46;;;;;;;;;;;21.20;72.60;;;;;;4995721;28;1407;-71
2023/08/01 11:15:12;;;;;;;;;;;21.20;72.80;;;;;;4996669;28;1898;-72
2023/08/01 11:17:38;;;;;;;;;;;21.10;72.90;;;;;;4999032;28;999;-71
2023/08/01 11:20:04;;;;;;;;;;;21.20;73.80;;;;;;5001944;28;1498;-71
2023/08/01 11:22:30;;;;;;;;;;;21.20;73.00;;;;;;4987884;28;1272;-71
2023/08/01 11:24:56;;;;;;;;;;;21.10;72.90;;;;;;4984176;28;849;-71
2023/08/01 11:27:21;;;;;;;;;;;21.20;72.90;;;;;;5001286;28;1382;-70
2023/08/01 11:29:46;;;;;;;;;;;21.20;73.10;;;;;;4997240;28;1209;-71
2023/08/01 11:32:12;;;;;;;;;;;21.20;73.20;;;;;;4995813;28;884;-71
2023/08/01 11:34:41;;;;;;;;;;;21.10;73.20;;;;;;4997151;28;1906;-71
2023/08/01 11:37:06;;;;;;;;;;;21.20;73.30;;;;;;4999162;28;886;-71
2023/08/01 11:39:32;;;;;;;;;;;21.20;73.30;;;;;;4982067;28;962;-71
2023/08/01 11:41:57;;;;;;;;;;;21.20;73.20;;;;;;4994648;28;1430;-72
2023/08/01 11:44:23;;;;;;;;;;;21.20;73.30;;;;;;4997186;28;1226;-72
2023/08/01 11:46:49;;;;;;;;;;;21.10;73.20;;;;;;4995521;28;896;-71
2023/08/01 11:49:14;;;;;;;;;;;21.20;73.10;;;;;;4998361;28;1022;-71
2023/08/01 11:51:40;;;;;;;;;;;21.20;73.10;;;;;;4981273;28;912;-69
2023/08/01 11:54:07;;;;;;;;;;;21.10;73.00;;;;;;4998841;28;1972;-70
2023/08/01 11:56:33;;;;;;;;;;;21.20;73.00;;;;;;4999310;28;832;-71
2023/08/01 11:58:58;;;;;;;;;;;21.20;72.90;;;;;;4994173;28;880;-68
2023/08/01 12:01:24;;;;;;;;;;;21.20;72.80;;;;;;5000668;28;866;-70
2023/08/01 12:03:50;;;;;;;;;;;21.20;72.80;;;;;;4989370;28;1488;-70
2023/08/01 12:06:16;;;;;;;;;;;21.20;72.80;;;;;;5001028;28;854;-70
2023/08/01 12:08:41;;;;;;;;;;;21.20;72.90;;;;;;4983134;28;1558;-72
2023/08/01 12:11:28;;;;;;;;;;;21.20;73.10;;;;;;5000964;28;902;-73
2023/08/01 12:14:03;;;;;;;;;;;21.20;73.10;;;;;;5000555;28;1923;-69
2023/08/01 12:16:28;;;;;;;;;;;21.10;73.00;;;;;;5000393;28;839;-70
2023/08/01 12:18:54;;;;;;;;;;;21.20;73.00;;;;;;4988529;28;1422;-73
2023/08/01 12:21:19;;;;;;;;;;;21.20;73.10;;;;;;5002740;28;1023;-71
2023/08/01 12:23:45;;;;;;;;;;;21.20;73.10;;;;;;4999605;28;1268;-71
2023/08/01 12:26:10;;;;;;;;;;;21.20;73.30;;;;;;5003966;28;810;-71
2023/08/01 12:28:36;;;;;;;;;;;21.20;73.40;;;;;;5001065;28;881;-70
2023/08/01 12:31:01;;;;;;;;;;;21.20;73.50;;;;;;5001531;28;875;-70
2023/08/01 12:33:27;;;;;;;;;;;21.20;73.50;;;;;;5001019;28;1964;-69
2023/08/01 12:35:52;;;;;;;;;;;21.20;73.40;;;;;;4999202;28;893;-71
2023/08/01 12:38:18;;;;;;;;;;;21.20;73.30;;;;;;5000655;28;793;-71
2023/08/01 12:40:43;;;;;;;;;;;21.20;73.30;;;;;;5001075;28;911;-72
2023/08/01 12:43:08;;;;;;;;;;;21.20;73.20;;;;;;5001898;28;1249;-71
2023/08/01 12:45:34;;;;;;;;;;;21.20;73.00;;;;;;5001244;28;841;-70
2023/08/01 12:47:59;;;;;;;;;;;21.20;72.90;;;;;;4999451;28;923;-73
2023/08/01 12:50:25;;;;;;;;;;;21.20;72.90;;;;;;4996058;28;861;-74
2023/08/01 12:52:50;;;;;;;;;;;21.20;72.80;;;;;;4983040;28;2191;-73
2023/08/01 12:55:16;;;;;;;;;;;21.20;72.70;;;;;;5002317;28;2279;-74
2023/08/01 12:57:43;;;;;;;;;;;21.20;72.60;;;;;;4999239;28;1495;-73
2023/08/01 13:00:10;;;;;;;;;;;21.20;72.30;;;;;;4999750;28;1241;-72
2023/08/01 13:02:36;;;;;;;;;;;21.20;72.30;;;;;;5001796;28;1276;-73
2023/08/01 13:05:02;;;;;;;;;;;21.20;72.30;;;;;;5000768;28;832;-73
2023/08/01 13:07:27;;;;;;;;;;;21.20;72.30;;;;;;4988294;28;1348;-72
2023/08/01 13:09:53;;;;;;;;;;;21.20;72.10;;;;;;4999067;28;852;-72
2023/08/01 13:12:18;;;;;;;;;;;21.20;72.00;;;;;;4998654;28;1342;-73
2023/08/01 13:14:44;;;;;;;;;;;21.20;71.90;;;;;;5000277;28;1910;-74
2023/08/01 13:17:09;;;;;;;;;;;21.20;71.90;;;;;;5002654;28;1164;-74
2023/08/01 13:19:35;;;;;;;;;;;21.20;71.80;;;;;;5001161;28;1286;-72
2023/08/01 13:22:01;;;;;;;;;;;21.20;72.00;;;;;;5001220;28;1047;-73
2023/08/01 13:24:26;;;;;;;;;;;21.30;72.00;;;;;;5000734;28;1268;-72
2023/08/01 13:26:52;;;;;;;;;;;21.30;72.00;;;;;;5002240;28;1526;-73
2023/08/01 13:29:17;;;;;;;;;;;21.30;71.70;;;;;;4997678;28;1387;-74
2023/08/01 13:31:43;;;;;;;;;;;21.30;71.50;;;;;;5000012;28;896;-73
2023/08/01 13:34:08;;;;;;;;;;;21.30;71.50;;;;;;5001285;28;1975;-72
2023/08/01 13:36:34;;;;;;;;;;;21.30;71.40;;;;;;4984320;28;892;-72
2023/08/01 13:38:59;;;;;;;;;;;21.30;71.20;;;;;;4984811;28;892;-73
2023/08/01 13:41:24;;;;;;;;;;;21.30;71.10;;;;;;5001673;28;1375;-73
2023/08/01 13:43:50;;;;;;;;;;;21.30;71.00;;;;;;5002167;28;1267;-71
2023/08/01 13:46:16;;;;;;;;;;;21.30;70.80;;;;;;4999019;28;836;-71
2023/08/01 13:48:42;;;;;;;;;;;21.30;70.30;;;;;;4996187;28;924;-74
2023/08/01 13:51:07;;;;;;;;;;;21.30;70.40;;;;;;4999868;28;802;-74
2023/08/01 13:53:33;;;;;;;;;;;21.30;70.30;;;;;;4999140;28;2068;-72
2023/08/01 13:55:59;;;;;;;;;;;21.30;70.00;;;;;;5003380;28;1516;-73
2023/08/01 13:58:24;;;;;;;;;;;21.30;69.90;;;;;;4984362;28;2474;-74
2023/08/01 14:00:50;;;;;;;;;;;21.30;69.70;;;;;;4999290;28;1481;-74
2023/08/01 14:03:15;;;;;;;;;;;21.40;70.20;;;;;;5004529;28;1377;-73
2023/08/01 14:05:41;;;;;;;;;;;21.40;70.20;;;;;;4998335;28;1011;-73
2023/08/01 14:08:06;;;;;;;;;;;21.40;70.40;;;;;;4995840;28;842;-73
2023/08/01 14:10:32;;;;;;;;;;;21.40;70.40;;;;;;4982301;28;1265;-73
2023/08/01 14:12:57;;;;;;;;;;;21.40;70.40;;;;;;5000289;28;1365;-73
2023/08/01 14:15:22;;;;;;;;;;;21.30;70.30;;;;;;4999553;28;1965;-71
2023/08/01 14:17:48;;;;;;;;;;;21.30;70.40;;;;;;4999735;28;1688;-72
2023/08/01 14:20:13;;;;;;;;;;;21.30;70.30;;;;;;4989999;28;1491;-72
2023/08/01 14:22:40;;;;;;;;;;;21.30;70.10;;;;;;4999916;28;1586;-75
2023/08/01 14:25:06;;;;;;;;;;;21.30;70.10;;;;;;5004848;28;812;-76
2023/08/01 14:27:32;;;;;;;;;;;21.40;69.70;;;;;;4991038;28;1368;-75